CheckWX is a tool to help pilots better visualize weather data.  It is not intended as a substitute for an official pre-flight weather briefing.

13:46:31 UTC

VTUV METAR
Roi Et Airport
Thailand
Current

47 mins ago

VTUV 191300Z 05010KT 9999 FEW030 26/19 Q1014 NOSIG
Observed
Nov-19 @ 13:00 UTC
Wind
  • 050° at 10 KTS
Visibility
10,000+ meters
Flight Rules
VFR
Cloud Levels
  • Few at 3,000' AGL
Temperature
26°C / 79°F
Dewpoint
19°C / 66°F
Humidity
65%
Altimeter
29.94" Hg
Pressure
1013.92 hPa
Previous

2 hours ago

VTUV 191200Z 05009KT 9999 FEW030 26/19 Q1013 NOSIG
Observed
Nov-19 @ 12:00 UTC
Wind
  • 050° at 9 KTS
Visibility
10,000+ meters
Flight Rules
VFR
Cloud Levels
  • Few at 3,000' AGL
Temperature
26°C / 79°F
Dewpoint
19°C / 66°F
Humidity
65%
Altimeter
29.91" Hg
Pressure
1012.92 hPa
Previous

3 hours ago

VTUV 191100Z 05008KT 9999 BKN030 27/19 Q1013 NOSIG
Observed
Nov-19 @ 11:00 UTC
Wind
  • 050° at 8 KTS
Visibility
10,000+ meters
Flight Rules
MVFR
Cloud Levels
  • Broken at 3,000' AGL
Temperature
27°C / 81°F
Dewpoint
19°C / 66°F
Heat Index
28°C / 83°F
Humidity
62%
Altimeter
29.91" Hg
Pressure
1012.92 hPa